sensor_id;sensor_type;location;lat;lon;timestamp;temperature;humidity
73572;DHT22;61854;48.510;-2.770;2023-02-26T00:02:23;6.60;79.40
73572;DHT22;61854;48.510;-2.770;2023-02-26T00:04:49;6.60;79.00
73572;DHT22;61854;48.510;-2.770;2023-02-26T00:07:14;6.60;78.20
73572;DHT22;61854;48.510;-2.770;2023-02-26T00:09:40;6.50;78.00
73572;DHT22;61854;48.510;-2.770;2023-02-26T00:12:08;6.50;78.20
73572;DHT22;61854;48.510;-2.770;2023-02-26T00:14:35;6.50;78.50
73572;DHT22;61854;48.510;-2.770;2023-02-26T00:20:20;6.50;79.30
73572;DHT22;61854;48.510;-2.770;2023-02-26T00:22:46;6.60;80.20
73572;DHT22;61854;48.510;-2.770;2023-02-26T00:25:12;6.60;80.60
73572;DHT22;61854;48.510;-2.770;2023-02-26T00:27:38;6.50;81.10
73572;DHT22;61854;48.510;-2.770;2023-02-26T00:30:07;6.50;81.00
73572;DHT22;61854;48.510;-2.770;2023-02-26T00:32:33;6.50;79.20
73572;DHT22;61854;48.510;-2.770;2023-02-26T00:34:59;6.40;78.80
73572;DHT22;61854;48.510;-2.770;2023-02-26T00:37:51;6.40;78.40
73572;DHT22;61854;48.510;-2.770;2023-02-26T00:43:04;6.30;77.90
73572;DHT22;61854;48.510;-2.770;2023-02-26T00:45:31;6.30;77.90
73572;DHT22;61854;48.510;-2.770;2023-02-26T00:48:21;6.30;78.50
73572;DHT22;61854;48.510;-2.770;2023-02-26T00:51:05;6.30;79.20
73572;DHT22;61854;48.510;-2.770;2023-02-26T00:53:58;6.30;79.90
73572;DHT22;61854;48.510;-2.770;2023-02-26T00:56:27;6.30;79.70
73572;DHT22;61854;48.510;-2.770;2023-02-26T00:58:52;6.30;79.30
73572;DHT22;61854;48.510;-2.770;2023-02-26T01:01:18;6.30;79.20
73572;DHT22;61854;48.510;-2.770;2023-02-26T01:03:44;6.20;79.30
73572;DHT22;61854;48.510;-2.770;2023-02-26T01:06:12;6.20;79.60
73572;DHT22;61854;48.510;-2.770;2023-02-26T01:08:51;6.10;79.70
73572;DHT22;61854;48.510;-2.770;2023-02-26T01:11:19;6.10;79.70
73572;DHT22;61854;48.510;-2.770;2023-02-26T01:13:45;6.10;79.30
73572;DHT22;61854;48.510;-2.770;2023-02-26T01:16:16;6.10;79.30
73572;DHT22;61854;48.510;-2.770;2023-02-26T01:18:49;6.00;79.50
73572;DHT22;61854;48.510;-2.770;2023-02-26T01:21:42;6.00;80.80
73572;DHT22;61854;48.510;-2.770;2023-02-26T01:24:10;6.00;79.90
73572;DHT22;61854;48.510;-2.770;2023-02-26T01:26:38;6.00;80.00
73572;DHT22;61854;48.510;-2.770;2023-02-26T01:29:04;6.00;79.90
73572;DHT22;61854;48.510;-2.770;2023-02-26T01:31:53;5.90;79.50
73572;DHT22;61854;48.510;-2.770;2023-02-26T01:34:41;5.90;79.20
73572;DHT22;61854;48.510;-2.770;2023-02-26T01:37:52;5.90;79.00
73572;DHT22;61854;48.510;-2.770;2023-02-26T01:46:15;5.90;77.20
73572;DHT22;61854;48.510;-2.770;2023-02-26T01:48:52;5.80;77.20
73572;DHT22;61854;48.510;-2.770;2023-02-26T01:54:15;5.80;77.10
73572;DHT22;61854;48.510;-2.770;2023-02-26T01:56:42;5.80;77.30
73572;DHT22;61854;48.510;-2.770;2023-02-26T01:59:10;5.70;77.50
73572;DHT22;61854;48.510;-2.770;2023-02-26T02:01:39;5.70;77.60
73572;DHT22;61854;48.510;-2.770;2023-02-26T02:04:09;5.70;77.90
73572;DHT22;61854;48.510;-2.770;2023-02-26T02:06:35;5.60;78.10
73572;DHT22;61854;48.510;-2.770;2023-02-26T02:09:04;5.60;78.30
73572;DHT22;61854;48.510;-2.770;2023-02-26T02:11:31;5.50;78.40
73572;DHT22;61854;48.510;-2.770;2023-02-26T02:17:06;5.50;78.80
73572;DHT22;61854;48.510;-2.770;2023-02-26T02:20:21;5.50;79.00
73572;DHT22;61854;48.510;-2.770;2023-02-26T02:28:13;5.40;79.90
73572;DHT22;61854;48.510;-2.770;2023-02-26T02:33:18;5.40;80.60
73572;DHT22;61854;48.510;-2.770;2023-02-26T02:35:59;5.40;80.80
73572;DHT22;61854;48.510;-2.770;2023-02-26T02:38:33;5.30;80.60
73572;DHT22;61854;48.510;-2.770;2023-02-26T02:41:12;5.30;80.70
73572;DHT22;61854;48.510;-2.770;2023-02-26T02:43:43;5.30;80.80
73572;DHT22;61854;48.510;-2.770;2023-02-26T02:46:14;5.30;80.80
73572;DHT22;61854;48.510;-2.770;2023-02-26T02:49:01;5.30;80.70
73572;DHT22;61854;48.510;-2.770;2023-02-26T02:51:41;5.40;80.50
73572;DHT22;61854;48.510;-2.770;2023-02-26T02:57:14;5.40;80.90
73572;DHT22;61854;48.510;-2.770;2023-02-26T02:59:45;5.30;81.00
73572;DHT22;61854;48.510;-2.770;2023-02-26T03:02:20;5.40;81.10
73572;DHT22;61854;48.510;-2.770;2023-02-26T03:04:48;5.40;81.00
73572;DHT22;61854;48.510;-2.770;2023-02-26T03:07:14;5.40;80.90
73572;DHT22;61854;48.510;-2.770;2023-02-26T03:09:40;5.40;80.80
73572;DHT22;61854;48.510;-2.770;2023-02-26T03:12:06;5.40;80.30
73572;DHT22;61854;48.510;-2.770;2023-02-26T03:14:32;5.30;80.30
73572;DHT22;61854;48.510;-2.770;2023-02-26T03:17:28;5.30;80.10
73572;DHT22;61854;48.510;-2.770;2023-02-26T03:20:05;5.20;79.80
73572;DHT22;61854;48.510;-2.770;2023-02-26T03:22:34;5.20;79.00
73572;DHT22;61854;48.510;-2.770;2023-02-26T03:25:18;5.10;78.50
73572;DHT22;61854;48.510;-2.770;2023-02-26T03:27:48;5.10;78.20
73572;DHT22;61854;48.510;-2.770;2023-02-26T03:30:21;5.10;78.00
73572;DHT22;61854;48.510;-2.770;2023-02-26T03:33:07;5.10;77.70
73572;DHT22;61854;48.510;-2.770;2023-02-26T03:38:16;5.00;77.00
73572;DHT22;61854;48.510;-2.770;2023-02-26T03:40:48;5.00;77.00
73572;DHT22;61854;48.510;-2.770;2023-02-26T03:43:21;5.00;77.00
73572;DHT22;61854;48.510;-2.770;2023-02-26T03:45:50;5.00;76.70
73572;DHT22;61854;48.510;-2.770;2023-02-26T03:48:22;5.10;76.40
73572;DHT22;61854;48.510;-2.770;2023-02-26T03:50:51;5.10;76.30
73572;DHT22;61854;48.510;-2.770;2023-02-26T03:53:23;5.10;76.20
73572;DHT22;61854;48.510;-2.770;2023-02-26T03:58:34;5.10;75.80
73572;DHT22;61854;48.510;-2.770;2023-02-26T04:01:06;5.00;75.80
73572;DHT22;61854;48.510;-2.770;2023-02-26T04:04:03;5.00;75.60
73572;DHT22;61854;48.510;-2.770;2023-02-26T04:06:31;5.00;75.80
73572;DHT22;61854;48.510;-2.770;2023-02-26T04:08:59;4.90;75.50
73572;DHT22;61854;48.510;-2.770;2023-02-26T04:11:26;4.90;75.60
73572;DHT22;61854;48.510;-2.770;2023-02-26T04:13:53;4.90;75.50
73572;DHT22;61854;48.510;-2.770;2023-02-26T04:16:20;4.90;75.50
73572;DHT22;61854;48.510;-2.770;2023-02-26T04:18:45;4.90;75.60
73572;DHT22;61854;48.510;-2.770;2023-02-26T04:21:13;4.80;75.20
73572;DHT22;61854;48.510;-2.770;2023-02-26T04:23:40;4.80;75.30
73572;DHT22;61854;48.510;-2.770;2023-02-26T04:26:05;4.70;75.60
73572;DHT22;61854;48.510;-2.770;2023-02-26T04:28:31;4.70;75.60
73572;DHT22;61854;48.510;-2.770;2023-02-26T04:30:57;4.70;75.80
73572;DHT22;61854;48.510;-2.770;2023-02-26T04:33:24;4.70;75.80
73572;DHT22;61854;48.510;-2.770;2023-02-26T04:35:51;4.60;75.10
73572;DHT22;61854;48.510;-2.770;2023-02-26T04:38:17;4.60;73.90
73572;DHT22;61854;48.510;-2.770;2023-02-26T04:40:42;4.60;73.80
73572;DHT22;61854;48.510;-2.770;2023-02-26T04:43:08;4.60;73.00
73572;DHT22;61854;48.510;-2.770;2023-02-26T04:45:34;4.60;72.20
73572;DHT22;61854;48.510;-2.770;2023-02-26T04:48:00;4.60;72.10
73572;DHT22;61854;48.510;-2.770;2023-02-26T04:50:25;4.60;71.50
73572;DHT22;61854;48.510;-2.770;2023-02-26T04:52:54;4.60;71.00
73572;DHT22;61854;48.510;-2.770;2023-02-26T04:55:19;4.60;70.80
73572;DHT22;61854;48.510;-2.770;2023-02-26T04:57:45;4.60;70.60
73572;DHT22;61854;48.510;-2.770;2023-02-26T05:00:11;4.60;70.60
73572;DHT22;61854;48.510;-2.770;2023-02-26T05:02:37;4.60;70.80
73572;DHT22;61854;48.510;-2.770;2023-02-26T05:05:03;4.60;70.60
73572;DHT22;61854;48.510;-2.770;2023-02-26T05:07:29;4.50;70.30
73572;DHT22;61854;48.510;-2.770;2023-02-26T05:09:57;4.50;70.20
73572;DHT22;61854;48.510;-2.770;2023-02-26T05:12:23;4.50;70.10
73572;DHT22;61854;48.510;-2.770;2023-02-26T05:14:49;4.40;70.10
73572;DHT22;61854;48.510;-2.770;2023-02-26T05:17:14;4.40;69.70
73572;DHT22;61854;48.510;-2.770;2023-02-26T05:19:40;4.40;69.50
73572;DHT22;61854;48.510;-2.770;2023-02-26T05:22:06;4.40;69.60
73572;DHT22;61854;48.510;-2.770;2023-02-26T05:24:31;4.40;69.60
73572;DHT22;61854;48.510;-2.770;2023-02-26T05:26:57;4.40;69.70
73572;DHT22;61854;48.510;-2.770;2023-02-26T05:29:23;4.30;69.50
73572;DHT22;61854;48.510;-2.770;2023-02-26T05:31:48;4.30;69.60
73572;DHT22;61854;48.510;-2.770;2023-02-26T05:34:14;4.30;69.70
73572;DHT22;61854;48.510;-2.770;2023-02-26T05:36:40;4.30;69.90
73572;DHT22;61854;48.510;-2.770;2023-02-26T05:39:05;4.30;70.00
73572;DHT22;61854;48.510;-2.770;2023-02-26T05:41:31;4.30;70.10
73572;DHT22;61854;48.510;-2.770;2023-02-26T05:43:57;4.20;70.20
73572;DHT22;61854;48.510;-2.770;2023-02-26T05:46:23;4.20;70.30
73572;DHT22;61854;48.510;-2.770;2023-02-26T05:48:49;4.20;70.60
73572;DHT22;61854;48.510;-2.770;2023-02-26T05:51:14;4.20;70.80
73572;DHT22;61854;48.510;-2.770;2023-02-26T05:53:40;4.20;71.00
73572;DHT22;61854;48.510;-2.770;2023-02-26T05:56:06;4.20;71.20
73572;DHT22;61854;48.510;-2.770;2023-02-26T05:58:32;4.10;71.30
73572;DHT22;61854;48.510;-2.770;2023-02-26T06:00:58;4.10;71.50
73572;DHT22;61854;48.510;-2.770;2023-02-26T06:03:25;4.10;71.70
73572;DHT22;61854;48.510;-2.770;2023-02-26T06:05:51;4.10;72.00
73572;DHT22;61854;48.510;-2.770;2023-02-26T06:08:17;4.10;72.30
73572;DHT22;61854;48.510;-2.770;2023-02-26T06:10:43;4.10;72.50
73572;DHT22;61854;48.510;-2.770;2023-02-26T06:13:08;4.10;72.80
73572;DHT22;61854;48.510;-2.770;2023-02-26T06:15:34;4.10;73.20
73572;DHT22;61854;48.510;-2.770;2023-02-26T06:18:00;4.00;73.50
73572;DHT22;61854;48.510;-2.770;2023-02-26T06:20:26;4.00;73.60
73572;DHT22;61854;48.510;-2.770;2023-02-26T06:22:52;4.00;73.60
73572;DHT22;61854;48.510;-2.770;2023-02-26T06:25:18;4.00;74.00
73572;DHT22;61854;48.510;-2.770;2023-02-26T06:27:43;4.00;74.10
73572;DHT22;61854;48.510;-2.770;2023-02-26T06:30:12;4.00;74.30
73572;DHT22;61854;48.510;-2.770;2023-02-26T06:32:38;4.00;74.50
73572;DHT22;61854;48.510;-2.770;2023-02-26T06:35:04;4.00;74.60
73572;DHT22;61854;48.510;-2.770;2023-02-26T06:37:30;4.00;74.70
73572;DHT22;61854;48.510;-2.770;2023-02-26T06:39:56;3.90;74.80
73572;DHT22;61854;48.510;-2.770;2023-02-26T06:42:22;3.90;75.10
73572;DHT22;61854;48.510;-2.770;2023-02-26T06:44:48;3.90;75.30
73572;DHT22;61854;48.510;-2.770;2023-02-26T06:47:13;3.90;75.50
73572;DHT22;61854;48.510;-2.770;2023-02-26T06:49:39;3.80;75.60
73572;DHT22;61854;48.510;-2.770;2023-02-26T06:52:05;3.80;76.00
73572;DHT22;61854;48.510;-2.770;2023-02-26T06:54:30;3.80;76.10
73572;DHT22;61854;48.510;-2.770;2023-02-26T06:56:56;3.80;76.40
73572;DHT22;61854;48.510;-2.770;2023-02-26T06:59:22;3.80;76.50
73572;DHT22;61854;48.510;-2.770;2023-02-26T07:01:48;3.80;76.70
73572;DHT22;61854;48.510;-2.770;2023-02-26T07:04:14;3.80;76.90
73572;DHT22;61854;48.510;-2.770;2023-02-26T07:06:40;3.80;77.10
73572;DHT22;61854;48.510;-2.770;2023-02-26T07:09:05;3.80;77.30
73572;DHT22;61854;48.510;-2.770;2023-02-26T07:11:31;3.90;77.50
73572;DHT22;61854;48.510;-2.770;2023-02-26T07:13:57;3.90;77.20
73572;DHT22;61854;48.510;-2.770;2023-02-26T07:16:22;4.10;76.80
73572;DHT22;61854;48.510;-2.770;2023-02-26T07:18:48;4.10;75.80
73572;DHT22;61854;48.510;-2.770;2023-02-26T07:21:13;4.20;74.90
73572;DHT22;61854;48.510;-2.770;2023-02-26T07:23:39;4.30;73.70
73572;DHT22;61854;48.510;-2.770;2023-02-26T07:26:05;4.30;73.00
73572;DHT22;61854;48.510;-2.770;2023-02-26T07:28:30;4.40;72.10
73572;DHT22;61854;48.510;-2.770;2023-02-26T07:30:56;4.50;70.60
73572;DHT22;61854;48.510;-2.770;2023-02-26T07:33:23;4.50;70.20
73572;DHT22;61854;48.510;-2.770;2023-02-26T07:35:49;4.50;69.20
73572;DHT22;61854;48.510;-2.770;2023-02-26T07:38:15;4.60;68.60
73572;DHT22;61854;48.510;-2.770;2023-02-26T07:40:40;4.60;67.00
73572;DHT22;61854;48.510;-2.770;2023-02-26T07:43:06;4.60;66.40
73572;DHT22;61854;48.510;-2.770;2023-02-26T07:45:32;4.60;65.60
73572;DHT22;61854;48.510;-2.770;2023-02-26T07:47:58;4.60;64.50
73572;DHT22;61854;48.510;-2.770;2023-02-26T07:50:24;4.70;63.70
73572;DHT22;61854;48.510;-2.770;2023-02-26T07:52:53;4.70;63.80
73572;DHT22;61854;48.510;-2.770;2023-02-26T07:55:19;4.70;63.50
73572;DHT22;61854;48.510;-2.770;2023-02-26T07:57:45;4.70;62.80
73572;DHT22;61854;48.510;-2.770;2023-02-26T08:00:12;4.70;62.40
73572;DHT22;61854;48.510;-2.770;2023-02-26T08:02:38;4.80;62.50
73572;DHT22;61854;48.510;-2.770;2023-02-26T08:05:04;4.80;62.20
73572;DHT22;61854;48.510;-2.770;2023-02-26T08:07:30;4.90;62.20
73572;DHT22;61854;48.510;-2.770;2023-02-26T08:09:55;4.90;61.80
73572;DHT22;61854;48.510;-2.770;2023-02-26T08:12:21;5.00;61.90
73572;DHT22;61854;48.510;-2.770;2023-02-26T08:14:47;5.00;61.50
73572;DHT22;61854;48.510;-2.770;2023-02-26T08:17:13;5.10;61.40
73572;DHT22;61854;48.510;-2.770;2023-02-26T08:19:38;5.10;61.80
73572;DHT22;61854;48.510;-2.770;2023-02-26T08:22:04;5.10;61.70
73572;DHT22;61854;48.510;-2.770;2023-02-26T08:24:30;5.20;62.20
73572;DHT22;61854;48.510;-2.770;2023-02-26T08:26:55;5.10;62.70
73572;DHT22;61854;48.510;-2.770;2023-02-26T08:29:21;5.20;63.00
73572;DHT22;61854;48.510;-2.770;2023-02-26T08:31:47;5.20;62.80
73572;DHT22;61854;48.510;-2.770;2023-02-26T08:34:13;5.30;63.00
73572;DHT22;61854;48.510;-2.770;2023-02-26T08:36:38;5.30;63.10
73572;DHT22;61854;48.510;-2.770;2023-02-26T08:39:04;5.40;63.20
73572;DHT22;61854;48.510;-2.770;2023-02-26T08:41:31;5.40;63.20
73572;DHT22;61854;48.510;-2.770;2023-02-26T08:44:01;5.40;63.30
73572;DHT22;61854;48.510;-2.770;2023-02-26T08:46:27;5.40;62.40
73572;DHT22;61854;48.510;-2.770;2023-02-26T08:48:52;5.50;62.20
73572;DHT22;61854;48.510;-2.770;2023-02-26T08:51:19;5.50;61.00
73572;DHT22;61854;48.510;-2.770;2023-02-26T08:53:45;5.50;60.60
73572;DHT22;61854;48.510;-2.770;2023-02-26T08:56:12;5.50;60.20
73572;DHT22;61854;48.510;-2.770;2023-02-26T08:58:38;5.50;60.30
73572;DHT22;61854;48.510;-2.770;2023-02-26T09:01:04;5.50;60.80
73572;DHT22;61854;48.510;-2.770;2023-02-26T09:03:31;5.50;60.60
73572;DHT22;61854;48.510;-2.770;2023-02-26T09:05:56;5.60;60.30
73572;DHT22;61854;48.510;-2.770;2023-02-26T09:08:22;5.60;59.20
73572;DHT22;61854;48.510;-2.770;2023-02-26T09:10:48;5.70;58.50
73572;DHT22;61854;48.510;-2.770;2023-02-26T09:13:14;5.70;57.60
73572;DHT22;61854;48.510;-2.770;2023-02-26T09:15:40;5.70;56.70
73572;DHT22;61854;48.510;-2.770;2023-02-26T09:18:06;5.80;55.40
73572;DHT22;61854;48.510;-2.770;2023-02-26T09:20:31;5.80;55.30
73572;DHT22;61854;48.510;-2.770;2023-02-26T09:22:57;5.80;55.90
73572;DHT22;61854;48.510;-2.770;2023-02-26T09:25:23;5.80;54.60
73572;DHT22;61854;48.510;-2.770;2023-02-26T09:27:49;5.80;54.60
73572;DHT22;61854;48.510;-2.770;2023-02-26T09:30:15;5.80;54.50
73572;DHT22;61854;48.510;-2.770;2023-02-26T09:32:41;5.80;55.60
73572;DHT22;61854;48.510;-2.770;2023-02-26T09:35:06;5.80;55.40
73572;DHT22;61854;48.510;-2.770;2023-02-26T09:37:32;5.80;55.90
73572;DHT22;61854;48.510;-2.770;2023-02-26T09:39:58;5.90;55.90
73572;DHT22;61854;48.510;-2.770;2023-02-26T09:42:46;5.90;55.90
73572;DHT22;61854;48.510;-2.770;2023-02-26T09:45:25;6.00;56.20
73572;DHT22;61854;48.510;-2.770;2023-02-26T09:47:53;6.10;56.90
73572;DHT22;61854;48.510;-2.770;2023-02-26T09:50:23;6.20;57.00
73572;DHT22;61854;48.510;-2.770;2023-02-26T09:53:01;6.30;57.10
73572;DHT22;61854;48.510;-2.770;2023-02-26T09:56:33;6.40;56.50
73572;DHT22;61854;48.510;-2.770;2023-02-26T10:01:20;6.50;56.70
73572;DHT22;61854;48.510;-2.770;2023-02-26T10:06:37;6.50;56.30
73572;DHT22;61854;48.510;-2.770;2023-02-26T10:14:37;6.60;57.80
73572;DHT22;61854;48.510;-2.770;2023-02-26T10:17:22;6.60;57.30
73572;DHT22;61854;48.510;-2.770;2023-02-26T10:19:55;6.70;56.10
73572;DHT22;61854;48.510;-2.770;2023-02-26T10:25:37;6.70;56.90
73572;DHT22;61854;48.510;-2.770;2023-02-26T10:28:14;6.70;57.30
73572;DHT22;61854;48.510;-2.770;2023-02-26T10:30:48;6.80;56.80
73572;DHT22;61854;48.510;-2.770;2023-02-26T10:33:26;6.80;56.50
73572;DHT22;61854;48.510;-2.770;2023-02-26T10:35:57;6.80;56.00
73572;DHT22;61854;48.510;-2.770;2023-02-26T10:38:29;6.80;57.00
73572;DHT22;61854;48.510;-2.770;2023-02-26T10:41:04;6.90;55.80
73572;DHT22;61854;48.510;-2.770;2023-02-26T10:43:41;7.00;54.20
73572;DHT22;61854;48.510;-2.770;2023-02-26T10:51:47;7.40;55.30
73572;DHT22;61854;48.510;-2.770;2023-02-26T10:56:57;7.50;53.90
73572;DHT22;61854;48.510;-2.770;2023-02-26T10:59:23;7.50;54.40
73572;DHT22;61854;48.510;-2.770;2023-02-26T11:01:50;7.60;55.50
73572;DHT22;61854;48.510;-2.770;2023-02-26T11:04:22;7.70;55.60
73572;DHT22;61854;48.510;-2.770;2023-02-26T11:06:52;7.80;56.00
73572;DHT22;61854;48.510;-2.770;2023-02-26T11:09:32;7.80;55.20
73572;DHT22;61854;48.510;-2.770;2023-02-26T11:12:12;7.70;55.30
73572;DHT22;61854;48.510;-2.770;2023-02-26T11:14:39;7.60;55.00
73572;DHT22;61854;48.510;-2.770;2023-02-26T11:17:24;7.50;56.40
73572;DHT22;61854;48.510;-2.770;2023-02-26T11:20:23;7.60;56.80
73572;DHT22;61854;48.510;-2.770;2023-02-26T11:22:53;7.70;55.90
73572;DHT22;61854;48.510;-2.770;2023-02-26T11:25:23;7.80;55.20
73572;DHT22;61854;48.510;-2.770;2023-02-26T11:28:02;8.00;54.60
73572;DHT22;61854;48.510;-2.770;2023-02-26T11:30:31;8.10;53.30
73572;DHT22;61854;48.510;-2.770;2023-02-26T11:33:05;8.10;52.80
73572;DHT22;61854;48.510;-2.770;2023-02-26T11:35:32;8.20;52.30
73572;DHT22;61854;48.510;-2.770;2023-02-26T11:38:00;8.20;52.10
73572;DHT22;61854;48.510;-2.770;2023-02-26T11:40:38;8.30;52.60
73572;DHT22;61854;48.510;-2.770;2023-02-26T11:43:09;8.30;52.10
73572;DHT22;61854;48.510;-2.770;2023-02-26T11:45:39;8.20;52.80
73572;DHT22;61854;48.510;-2.770;2023-02-26T11:48:13;8.30;52.80
73572;DHT22;61854;48.510;-2.770;2023-02-26T11:50:44;8.30;52.10
73572;DHT22;61854;48.510;-2.770;2023-02-26T11:53:32;8.10;52.50
73572;DHT22;61854;48.510;-2.770;2023-02-26T11:56:07;8.00;54.20
73572;DHT22;61854;48.510;-2.770;2023-02-26T11:58:36;8.00;55.50
73572;DHT22;61854;48.510;-2.770;2023-02-26T12:01:02;8.00;57.00
73572;DHT22;61854;48.510;-2.770;2023-02-26T12:03:32;8.10;58.00
73572;DHT22;61854;48.510;-2.770;2023-02-26T12:05:59;8.30;56.70
73572;DHT22;61854;48.510;-2.770;2023-02-26T12:08:34;8.50;55.80
73572;DHT22;61854;48.510;-2.770;2023-02-26T12:11:29;8.60;57.30
73572;DHT22;61854;48.510;-2.770;2023-02-26T12:17:11;8.80;57.50
73572;DHT22;61854;48.510;-2.770;2023-02-26T12:43:00;8.10;67.50
73572;DHT22;61854;48.510;-2.770;2023-02-26T12:50:53;8.20;68.20
73572;DHT22;61854;48.510;-2.770;2023-02-26T13:07:35;8.00;67.30
73572;DHT22;61854;48.510;-2.770;2023-02-26T13:16:12;8.10;62.40
73572;DHT22;61854;48.510;-2.770;2023-02-26T13:22:23;8.20;61.70
73572;DHT22;61854;48.510;-2.770;2023-02-26T13:24:55;8.20;62.10
73572;DHT22;61854;48.510;-2.770;2023-02-26T13:27:26;8.20;63.20
73572;DHT22;61854;48.510;-2.770;2023-02-26T13:30:19;8.40;61.90
73572;DHT22;61854;48.510;-2.770;2023-02-26T13:32:49;8.40;62.60
73572;DHT22;61854;48.510;-2.770;2023-02-26T13:35:24;8.40;61.50
73572;DHT22;61854;48.510;-2.770;2023-02-26T13:37:54;8.40;60.20
73572;DHT22;61854;48.510;-2.770;2023-02-26T13:40:44;8.40;60.00
73572;DHT22;61854;48.510;-2.770;2023-02-26T13:58:43;10.00;48.10
73572;DHT22;61854;48.510;-2.770;2023-02-26T14:02:02;10.40;43.90
73572;DHT22;61854;48.510;-2.770;2023-02-26T14:07:15;10.70;41.90
73572;DHT22;61854;48.510;-2.770;2023-02-26T14:10:01;10.90;41.30
73572;DHT22;61854;48.510;-2.770;2023-02-26T14:12:41;11.00;40.40
73572;DHT22;61854;48.510;-2.770;2023-02-26T14:17:40;11.20;38.60
73572;DHT22;61854;48.510;-2.770;2023-02-26T14:25:40;11.20;38.10
73572;DHT22;61854;48.510;-2.770;2023-02-26T14:33:31;11.40;40.10
73572;DHT22;61854;48.510;-2.770;2023-02-26T14:36:04;11.40;40.50
73572;DHT22;61854;48.510;-2.770;2023-02-26T14:38:34;11.50;39.80
73572;DHT22;61854;48.510;-2.770;2023-02-26T14:44:13;11.30;40.40
73572;DHT22;61854;48.510;-2.770;2023-02-26T14:46:40;11.30;41.80
73572;DHT22;61854;48.510;-2.770;2023-02-26T14:49:15;11.20;41.40
73572;DHT22;61854;48.510;-2.770;2023-02-26T14:52:00;11.40;40.00
73572;DHT22;61854;48.510;-2.770;2023-02-26T14:54:42;11.50;38.10
73572;DHT22;61854;48.510;-2.770;2023-02-26T14:57:23;11.80;38.50
73572;DHT22;61854;48.510;-2.770;2023-02-26T15:07:51;12.10;36.90
73572;DHT22;61854;48.510;-2.770;2023-02-26T15:10:48;12.30;37.80
73572;DHT22;61854;48.510;-2.770;2023-02-26T15:13:34;11.90;37.50
73572;DHT22;61854;48.510;-2.770;2023-02-26T15:24:17;12.10;38.50
73572;DHT22;61854;48.510;-2.770;2023-02-26T15:26:50;11.80;39.50
73572;DHT22;61854;48.510;-2.770;2023-02-26T15:29:16;11.80;40.20
73572;DHT22;61854;48.510;-2.770;2023-02-26T15:31:52;12.00;39.70
73572;DHT22;61854;48.510;-2.770;2023-02-26T15:34:19;12.10;39.00
73572;DHT22;61854;48.510;-2.770;2023-02-26T15:36:48;12.40;38.60
73572;DHT22;61854;48.510;-2.770;2023-02-26T15:39:18;12.60;37.90
73572;DHT22;61854;48.510;-2.770;2023-02-26T15:41:46;12.40;37.70
73572;DHT22;61854;48.510;-2.770;2023-02-26T15:44:24;12.50;36.50
73572;DHT22;61854;48.510;-2.770;2023-02-26T15:46:58;12.70;35.50
73572;DHT22;61854;48.510;-2.770;2023-02-26T15:49:35;12.80;36.60
73572;DHT22;61854;48.510;-2.770;2023-02-26T15:52:03;13.00;37.20
73572;DHT22;61854;48.510;-2.770;2023-02-26T15:54:38;12.60;37.50
73572;DHT22;61854;48.510;-2.770;2023-02-26T15:57:06;12.20;37.40
73572;DHT22;61854;48.510;-2.770;2023-02-26T15:59:36;11.60;37.30
73572;DHT22;61854;48.510;-2.770;2023-02-26T16:02:13;11.40;38.80
73572;DHT22;61854;48.510;-2.770;2023-02-26T16:04:40;11.50;38.10
73572;DHT22;61854;48.510;-2.770;2023-02-26T16:07:08;11.60;38.60
73572;DHT22;61854;48.510;-2.770;2023-02-26T16:09:35;11.70;38.80
73572;DHT22;61854;48.510;-2.770;2023-02-26T16:12:08;11.90;38.70
73572;DHT22;61854;48.510;-2.770;2023-02-26T16:14:37;11.70;37.90
73572;DHT22;61854;48.510;-2.770;2023-02-26T16:17:06;11.70;37.50
73572;DHT22;61854;48.510;-2.770;2023-02-26T16:22:10;10.90;39.50
73572;DHT22;61854;48.510;-2.770;2023-02-26T16:24:37;10.30;41.90
73572;DHT22;61854;48.510;-2.770;2023-02-26T16:27:06;9.70;44.00
73572;DHT22;61854;48.510;-2.770;2023-02-26T16:29:34;9.20;44.80
73572;DHT22;61854;48.510;-2.770;2023-02-26T16:32:03;8.80;45.90
73572;DHT22;61854;48.510;-2.770;2023-02-26T16:34:39;9.00;47.60
73572;DHT22;61854;48.510;-2.770;2023-02-26T16:39:46;9.00;46.20
73572;DHT22;61854;48.510;-2.770;2023-02-26T16:42:20;8.70;48.00
73572;DHT22;61854;48.510;-2.770;2023-02-26T16:44:50;8.70;49.60
73572;DHT22;61854;48.510;-2.770;2023-02-26T16:47:17;9.00;48.60
73572;DHT22;61854;48.510;-2.770;2023-02-26T16:49:45;8.70;48.40
73572;DHT22;61854;48.510;-2.770;2023-02-26T16:52:16;8.50;50.00
73572;DHT22;61854;48.510;-2.770;2023-02-26T16:54:48;8.50;50.90
73572;DHT22;61854;48.510;-2.770;2023-02-26T16:57:24;8.40;50.80
73572;DHT22;61854;48.510;-2.770;2023-02-26T16:59:58;8.10;51.90
73572;DHT22;61854;48.510;-2.770;2023-02-26T17:02:31;8.00;54.10
73572;DHT22;61854;48.510;-2.770;2023-02-26T17:05:03;7.80;54.50
73572;DHT22;61854;48.510;-2.770;2023-02-26T17:07:33;7.60;54.10
73572;DHT22;61854;48.510;-2.770;2023-02-26T17:10:18;7.50;54.90
73572;DHT22;61854;48.510;-2.770;2023-02-26T17:12:51;7.40;55.40
73572;DHT22;61854;48.510;-2.770;2023-02-26T17:15:22;7.40;56.60
73572;DHT22;61854;48.510;-2.770;2023-02-26T17:17:51;7.30;56.70
73572;DHT22;61854;48.510;-2.770;2023-02-26T17:20:22;7.20;56.80
73572;DHT22;61854;48.510;-2.770;2023-02-26T17:22:48;7.20;57.30
73572;DHT22;61854;48.510;-2.770;2023-02-26T17:25:16;7.20;58.70
73572;DHT22;61854;48.510;-2.770;2023-02-26T17:27:42;7.10;57.60
73572;DHT22;61854;48.510;-2.770;2023-02-26T17:30:12;7.10;58.40
73572;DHT22;61854;48.510;-2.770;2023-02-26T17:32:41;7.10;59.80
73572;DHT22;61854;48.510;-2.770;2023-02-26T17:35:08;7.00;59.40
73572;DHT22;61854;48.510;-2.770;2023-02-26T17:37:34;7.10;59.80
73572;DHT22;61854;48.510;-2.770;2023-02-26T17:40:01;7.00;60.40
73572;DHT22;61854;48.510;-2.770;2023-02-26T17:42:28;6.90;60.60
73572;DHT22;61854;48.510;-2.770;2023-02-26T17:44:54;6.90;60.50
73572;DHT22;61854;48.510;-2.770;2023-02-26T17:47:25;6.90;60.50
73572;DHT22;61854;48.510;-2.770;2023-02-26T17:49:51;6.90;60.50
73572;DHT22;61854;48.510;-2.770;2023-02-26T17:52:18;6.90;60.20
73572;DHT22;61854;48.510;-2.770;2023-02-26T17:54:44;6.90;60.20
73572;DHT22;61854;48.510;-2.770;2023-02-26T17:57:15;6.90;60.00
73572;DHT22;61854;48.510;-2.770;2023-02-26T17:59:41;6.90;60.70
73572;DHT22;61854;48.510;-2.770;2023-02-26T18:02:19;6.90;62.00
73572;DHT22;61854;48.510;-2.770;2023-02-26T18:04:45;6.90;61.50
73572;DHT22;61854;48.510;-2.770;2023-02-26T18:07:14;6.90;61.50
73572;DHT22;61854;48.510;-2.770;2023-02-26T18:09:44;6.90;59.10
73572;DHT22;61854;48.510;-2.770;2023-02-26T18:12:15;6.90;58.70
73572;DHT22;61854;48.510;-2.770;2023-02-26T18:14:41;6.80;58.50
73572;DHT22;61854;48.510;-2.770;2023-02-26T18:17:28;6.90;60.30
73572;DHT22;61854;48.510;-2.770;2023-02-26T18:19:56;6.80;61.00
73572;DHT22;61854;48.510;-2.770;2023-02-26T18:22:23;6.80;62.20
73572;DHT22;61854;48.510;-2.770;2023-02-26T18:24:50;6.80;63.10
73572;DHT22;61854;48.510;-2.770;2023-02-26T18:27:19;6.80;62.80
73572;DHT22;61854;48.510;-2.770;2023-02-26T18:29:45;6.90;63.30
73572;DHT22;61854;48.510;-2.770;2023-02-26T18:32:20;6.90;62.20
73572;DHT22;61854;48.510;-2.770;2023-02-26T18:34:46;6.90;61.70
73572;DHT22;61854;48.510;-2.770;2023-02-26T18:37:15;6.80;61.70
73572;DHT22;61854;48.510;-2.770;2023-02-26T18:39:42;6.80;62.90